sensor_id;sensor_type;location;lat;lon;timestamp;temperature;humidity
10390;DHT22;5241;47.830;12.972;2023-01-26T00:01:46;0.60;99.90
10390;DHT22;5241;47.830;12.972;2023-01-26T00:04:12;0.60;99.90
10390;DHT22;5241;47.830;12.972;2023-01-26T00:06:37;0.60;99.90
10390;DHT22;5241;47.830;12.972;2023-01-26T00:09:03;0.60;99.90
10390;DHT22;5241;47.830;12.972;2023-01-26T00:11:29;0.70;99.90
10390;DHT22;5241;47.830;12.972;2023-01-26T00:13:56;0.60;99.90
10390;DHT22;5241;47.830;12.972;2023-01-26T00:16:22;0.60;99.90
10390;DHT22;5241;47.830;12.972;2023-01-26T00:18:48;0.50;99.90
10390;DHT22;5241;47.830;12.972;2023-01-26T00:21:16;0.50;99.90
10390;DHT22;5241;47.830;12.972;2023-01-26T00:23:42;0.50;99.90
10390;DHT22;5241;47.830;12.972;2023-01-26T00:26:14;0.50;99.90
10390;DHT22;5241;47.830;12.972;2023-01-26T00:28:40;0.50;99.90
10390;DHT22;5241;47.830;12.972;2023-01-26T00:31:09;0.50;99.90
10390;DHT22;5241;47.830;12.972;2023-01-26T00:33:35;0.50;99.90
10390;DHT22;5241;47.830;12.972;2023-01-26T00:36:01;0.50;99.90
10390;DHT22;5241;47.830;12.972;2023-01-26T00:38:27;0.40;99.90
10390;DHT22;5241;47.830;12.972;2023-01-26T00:40:52;0.40;99.90
10390;DHT22;5241;47.830;12.972;2023-01-26T00:43:18;0.40;99.90
10390;DHT22;5241;47.830;12.972;2023-01-26T00:45:43;0.50;99.90
10390;DHT22;5241;47.830;12.972;2023-01-26T00:48:09;0.50;99.90
10390;DHT22;5241;47.830;12.972;2023-01-26T00:50:34;0.50;99.90
10390;DHT22;5241;47.830;12.972;2023-01-26T00:53:00;0.50;99.90
10390;DHT22;5241;47.830;12.972;2023-01-26T00:55:26;0.50;99.90
10390;DHT22;5241;47.830;12.972;2023-01-26T00:58:01;0.50;99.90
10390;DHT22;5241;47.830;12.972;2023-01-26T01:00:28;0.50;99.90
10390;DHT22;5241;47.830;12.972;2023-01-26T01:02:55;0.50;99.90
10390;DHT22;5241;47.830;12.972;2023-01-26T01:05:26;0.50;99.90
10390;DHT22;5241;47.830;12.972;2023-01-26T01:07:52;0.50;99.90
10390;DHT22;5241;47.830;12.972;2023-01-26T01:10:18;0.50;99.90
10390;DHT22;5241;47.830;12.972;2023-01-26T01:12:44;0.50;99.90
10390;DHT22;5241;47.830;12.972;2023-01-26T01:15:10;0.50;99.90
10390;DHT22;5241;47.830;12.972;2023-01-26T01:17:35;0.50;99.90
10390;DHT22;5241;47.830;12.972;2023-01-26T01:20:03;0.50;99.90
10390;DHT22;5241;47.830;12.972;2023-01-26T01:22:30;0.50;99.90
10390;DHT22;5241;47.830;12.972;2023-01-26T01:24:56;0.50;99.90
10390;DHT22;5241;47.830;12.972;2023-01-26T01:27:21;0.50;99.90
10390;DHT22;5241;47.830;12.972;2023-01-26T01:29:48;0.40;99.90
10390;DHT22;5241;47.830;12.972;2023-01-26T01:32:14;0.40;99.90
10390;DHT22;5241;47.830;12.972;2023-01-26T01:34:40;0.40;99.90
10390;DHT22;5241;47.830;12.972;2023-01-26T01:37:05;0.50;99.90
10390;DHT22;5241;47.830;12.972;2023-01-26T01:39:31;0.40;99.90
10390;DHT22;5241;47.830;12.972;2023-01-26T01:41:56;0.40;99.90
10390;DHT22;5241;47.830;12.972;2023-01-26T01:44:23;0.40;99.90
10390;DHT22;5241;47.830;12.972;2023-01-26T01:46:55;0.50;99.90
10390;DHT22;5241;47.830;12.972;2023-01-26T01:49:27;0.40;99.90
10390;DHT22;5241;47.830;12.972;2023-01-26T01:52:05;0.40;99.90
10390;DHT22;5241;47.830;12.972;2023-01-26T01:54:42;0.50;99.90
10390;DHT22;5241;47.830;12.972;2023-01-26T01:57:13;0.50;99.90
10390;DHT22;5241;47.830;12.972;2023-01-26T01:59:43;0.40;99.90
10390;DHT22;5241;47.830;12.972;2023-01-26T02:02:10;0.40;99.90
10390;DHT22;5241;47.830;12.972;2023-01-26T02:04:36;0.40;99.90
10390;DHT22;5241;47.830;12.972;2023-01-26T02:07:03;0.50;99.90
10390;DHT22;5241;47.830;12.972;2023-01-26T02:09:33;0.40;99.90
10390;DHT22;5241;47.830;12.972;2023-01-26T02:12:23;0.40;99.90
10390;DHT22;5241;47.830;12.972;2023-01-26T02:14:52;0.40;99.90
10390;DHT22;5241;47.830;12.972;2023-01-26T02:17:18;0.40;99.90
10390;DHT22;5241;47.830;12.972;2023-01-26T02:20:07;0.40;99.90
10390;DHT22;5241;47.830;12.972;2023-01-26T02:27:56;0.40;99.90
10390;DHT22;5241;47.830;12.972;2023-01-26T02:30:22;0.40;99.90
10390;DHT22;5241;47.830;12.972;2023-01-26T02:32:47;0.40;99.90
10390;DHT22;5241;47.830;12.972;2023-01-26T02:35:13;0.40;99.90
10390;DHT22;5241;47.830;12.972;2023-01-26T02:37:38;0.40;99.90
10390;DHT22;5241;47.830;12.972;2023-01-26T02:40:15;0.40;99.90
10390;DHT22;5241;47.830;12.972;2023-01-26T02:42:43;0.30;99.90
10390;DHT22;5241;47.830;12.972;2023-01-26T02:45:12;0.30;99.90
10390;DHT22;5241;47.830;12.972;2023-01-26T02:47:38;0.30;99.90
10390;DHT22;5241;47.830;12.972;2023-01-26T02:50:06;0.30;99.90
10390;DHT22;5241;47.830;12.972;2023-01-26T02:52:32;0.40;99.90
10390;DHT22;5241;47.830;12.972;2023-01-26T02:54:58;0.30;99.90
10390;DHT22;5241;47.830;12.972;2023-01-26T02:57:43;0.30;99.90
10390;DHT22;5241;47.830;12.972;2023-01-26T03:00:12;0.30;99.90
10390;DHT22;5241;47.830;12.972;2023-01-26T03:02:39;0.30;99.90
10390;DHT22;5241;47.830;12.972;2023-01-26T03:05:06;0.30;99.90
10390;DHT22;5241;47.830;12.972;2023-01-26T03:07:32;0.30;99.90
10390;DHT22;5241;47.830;12.972;2023-01-26T03:09:57;0.40;99.90
10390;DHT22;5241;47.830;12.972;2023-01-26T03:12:23;0.30;99.90
10390;DHT22;5241;47.830;12.972;2023-01-26T03:14:49;0.40;99.90
10390;DHT22;5241;47.830;12.972;2023-01-26T03:17:35;0.30;99.90
10390;DHT22;5241;47.830;12.972;2023-01-26T03:20:01;0.30;99.90
10390;DHT22;5241;47.830;12.972;2023-01-26T03:22:45;0.30;99.90
10390;DHT22;5241;47.830;12.972;2023-01-26T03:25:29;0.30;99.90
10390;DHT22;5241;47.830;12.972;2023-01-26T03:28:13;0.30;99.90
10390;DHT22;5241;47.830;12.972;2023-01-26T03:30:39;0.30;99.90
10390;DHT22;5241;47.830;12.972;2023-01-26T03:33:04;0.30;99.90
10390;DHT22;5241;47.830;12.972;2023-01-26T03:35:30;0.30;99.90
10390;DHT22;5241;47.830;12.972;2023-01-26T03:37:56;0.30;99.90
10390;DHT22;5241;47.830;12.972;2023-01-26T03:40:22;0.30;99.90
10390;DHT22;5241;47.830;12.972;2023-01-26T03:43:08;0.30;99.90
10390;DHT22;5241;47.830;12.972;2023-01-26T03:45:52;0.30;99.90
10390;DHT22;5241;47.830;12.972;2023-01-26T03:48:37;0.30;99.90
10390;DHT22;5241;47.830;12.972;2023-01-26T03:51:21;0.30;99.90
10390;DHT22;5241;47.830;12.972;2023-01-26T03:54:05;0.30;99.90
10390;DHT22;5241;47.830;12.972;2023-01-26T03:56:50;0.30;99.90
10390;DHT22;5241;47.830;12.972;2023-01-26T03:59:16;0.30;99.90
10390;DHT22;5241;47.830;12.972;2023-01-26T04:01:44;0.30;99.90
10390;DHT22;5241;47.830;12.972;2023-01-26T04:04:29;0.30;99.90
10390;DHT22;5241;47.830;12.972;2023-01-26T04:07:13;0.30;99.90
10390;DHT22;5241;47.830;12.972;2023-01-26T04:09:57;0.30;99.90
10390;DHT22;5241;47.830;12.972;2023-01-26T04:12:23;0.30;99.90
10390;DHT22;5241;47.830;12.972;2023-01-26T04:14:49;0.20;99.90
10390;DHT22;5241;47.830;12.972;2023-01-26T04:17:33;0.20;99.90
10390;DHT22;5241;47.830;12.972;2023-01-26T04:20:17;0.20;99.90
10390;DHT22;5241;47.830;12.972;2023-01-26T04:23:01;0.20;99.90
10390;DHT22;5241;47.830;12.972;2023-01-26T04:25:26;0.20;99.90
10390;DHT22;5241;47.830;12.972;2023-01-26T04:27:52;0.20;99.90
10390;DHT22;5241;47.830;12.972;2023-01-26T04:30:18;0.20;99.90
10390;DHT22;5241;47.830;12.972;2023-01-26T04:32:44;0.30;99.90
10390;DHT22;5241;47.830;12.972;2023-01-26T04:35:10;0.20;99.90
10390;DHT22;5241;47.830;12.972;2023-01-26T04:37:37;0.20;99.90
10390;DHT22;5241;47.830;12.972;2023-01-26T04:40:03;0.20;99.90
10390;DHT22;5241;47.830;12.972;2023-01-26T04:42:29;0.20;99.90
10390;DHT22;5241;47.830;12.972;2023-01-26T04:44:54;0.20;99.90
10390;DHT22;5241;47.830;12.972;2023-01-26T04:47:20;0.20;99.90
10390;DHT22;5241;47.830;12.972;2023-01-26T04:49:46;0.20;99.90
10390;DHT22;5241;47.830;12.972;2023-01-26T04:52:12;0.20;99.90
10390;DHT22;5241;47.830;12.972;2023-01-26T04:54:38;0.20;99.90
10390;DHT22;5241;47.830;12.972;2023-01-26T04:57:04;0.20;99.90
10390;DHT22;5241;47.830;12.972;2023-01-26T04:59:30;0.20;99.90
10390;DHT22;5241;47.830;12.972;2023-01-26T05:01:56;0.20;99.90
10390;DHT22;5241;47.830;12.972;2023-01-26T05:04:21;0.20;99.90
10390;DHT22;5241;47.830;12.972;2023-01-26T05:06:47;0.20;99.90
10390;DHT22;5241;47.830;12.972;2023-01-26T05:09:12;0.20;99.90
10390;DHT22;5241;47.830;12.972;2023-01-26T05:11:38;0.20;99.90
10390;DHT22;5241;47.830;12.972;2023-01-26T05:14:04;0.30;99.90
10390;DHT22;5241;47.830;12.972;2023-01-26T05:16:29;0.20;99.90
10390;DHT22;5241;47.830;12.972;2023-01-26T05:18:55;0.20;99.90
10390;DHT22;5241;47.830;12.972;2023-01-26T05:21:20;0.20;99.90
10390;DHT22;5241;47.830;12.972;2023-01-26T05:23:49;0.20;99.90
10390;DHT22;5241;47.830;12.972;2023-01-26T05:26:14;0.20;99.90
10390;DHT22;5241;47.830;12.972;2023-01-26T05:28:40;0.20;99.90
10390;DHT22;5241;47.830;12.972;2023-01-26T05:31:05;0.20;99.90
10390;DHT22;5241;47.830;12.972;2023-01-26T05:33:31;0.20;99.90
10390;DHT22;5241;47.830;12.972;2023-01-26T05:35:57;0.20;99.90
10390;DHT22;5241;47.830;12.972;2023-01-26T05:38:23;0.20;99.90
10390;DHT22;5241;47.830;12.972;2023-01-26T05:40:48;0.20;99.90
10390;DHT22;5241;47.830;12.972;2023-01-26T05:43:14;0.20;99.90
10390;DHT22;5241;47.830;12.972;2023-01-26T05:45:40;0.20;99.90
10390;DHT22;5241;47.830;12.972;2023-01-26T05:48:05;0.20;99.90
10390;DHT22;5241;47.830;12.972;2023-01-26T05:50:31;0.20;99.90
10390;DHT22;5241;47.830;12.972;2023-01-26T05:52:57;0.20;99.90
10390;DHT22;5241;47.830;12.972;2023-01-26T05:55:25;0.20;99.90
10390;DHT22;5241;47.830;12.972;2023-01-26T05:57:50;0.10;99.90
10390;DHT22;5241;47.830;12.972;2023-01-26T06:00:16;0.20;99.90
10390;DHT22;5241;47.830;12.972;2023-01-26T06:02:42;0.20;99.90
10390;DHT22;5241;47.830;12.972;2023-01-26T06:05:08;0.20;99.90
10390;DHT22;5241;47.830;12.972;2023-01-26T06:07:33;0.10;99.90
10390;DHT22;5241;47.830;12.972;2023-01-26T06:09:59;0.10;99.90
10390;DHT22;5241;47.830;12.972;2023-01-26T06:12:24;0.20;99.90
10390;DHT22;5241;47.830;12.972;2023-01-26T06:14:52;0.20;99.90
10390;DHT22;5241;47.830;12.972;2023-01-26T06:17:18;0.20;99.90
10390;DHT22;5241;47.830;12.972;2023-01-26T06:19:43;0.20;99.90
10390;DHT22;5241;47.830;12.972;2023-01-26T06:22:10;0.20;99.90
10390;DHT22;5241;47.830;12.972;2023-01-26T06:24:36;0.20;99.90
10390;DHT22;5241;47.830;12.972;2023-01-26T06:27:03;0.20;99.90
10390;DHT22;5241;47.830;12.972;2023-01-26T06:29:31;0.20;99.90
10390;DHT22;5241;47.830;12.972;2023-01-26T06:31:58;0.20;99.90
10390;DHT22;5241;47.830;12.972;2023-01-26T06:34:24;0.20;99.90
10390;DHT22;5241;47.830;12.972;2023-01-26T06:36:50;0.20;99.90
10390;DHT22;5241;47.830;12.972;2023-01-26T06:39:15;0.20;99.90
10390;DHT22;5241;47.830;12.972;2023-01-26T06:41:42;0.20;99.90
10390;DHT22;5241;47.830;12.972;2023-01-26T06:44:08;0.20;99.90
10390;DHT22;5241;47.830;12.972;2023-01-26T06:46:34;0.20;99.90
10390;DHT22;5241;47.830;12.972;2023-01-26T06:49:03;0.20;99.90
10390;DHT22;5241;47.830;12.972;2023-01-26T06:51:45;0.20;99.90
10390;DHT22;5241;47.830;12.972;2023-01-26T06:54:13;0.20;99.90
10390;DHT22;5241;47.830;12.972;2023-01-26T06:56:39;0.20;99.90
10390;DHT22;5241;47.830;12.972;2023-01-26T06:59:05;0.20;99.90
10390;DHT22;5241;47.830;12.972;2023-01-26T07:01:35;0.20;99.90
10390;DHT22;5241;47.830;12.972;2023-01-26T07:04:01;0.20;99.90
10390;DHT22;5241;47.830;12.972;2023-01-26T07:06:27;0.20;99.90
10390;DHT22;5241;47.830;12.972;2023-01-26T07:08:52;0.20;99.90
10390;DHT22;5241;47.830;12.972;2023-01-26T07:11:18;0.30;99.90
10390;DHT22;5241;47.830;12.972;2023-01-26T07:13:44;0.30;99.90
10390;DHT22;5241;47.830;12.972;2023-01-26T07:16:12;0.30;99.90
10390;DHT22;5241;47.830;12.972;2023-01-26T07:18:38;0.30;99.90
10390;DHT22;5241;47.830;12.972;2023-01-26T07:21:05;0.30;99.90
10390;DHT22;5241;47.830;12.972;2023-01-26T07:23:31;0.30;99.90
10390;DHT22;5241;47.830;12.972;2023-01-26T07:25:57;0.40;99.90
10390;DHT22;5241;47.830;12.972;2023-01-26T07:28:24;0.40;99.90
10390;DHT22;5241;47.830;12.972;2023-01-26T07:30:50;0.40;99.90
10390;DHT22;5241;47.830;12.972;2023-01-26T07:33:16;0.50;99.90
10390;DHT22;5241;47.830;12.972;2023-01-26T07:35:42;0.50;99.90
10390;DHT22;5241;47.830;12.972;2023-01-26T07:38:07;0.50;99.90
10390;DHT22;5241;47.830;12.972;2023-01-26T07:40:33;0.40;99.90
10390;DHT22;5241;47.830;12.972;2023-01-26T07:42:59;0.40;99.90
10390;DHT22;5241;47.830;12.972;2023-01-26T07:45:25;0.40;99.90
10390;DHT22;5241;47.830;12.972;2023-01-26T07:47:53;0.40;99.90
10390;DHT22;5241;47.830;12.972;2023-01-26T07:50:19;0.50;99.90
10390;DHT22;5241;47.830;12.972;2023-01-26T07:52:46;0.50;99.90
10390;DHT22;5241;47.830;12.972;2023-01-26T07:55:12;0.50;99.90
10390;DHT22;5241;47.830;12.972;2023-01-26T07:57:38;0.60;99.90
10390;DHT22;5241;47.830;12.972;2023-01-26T08:00:05;0.70;99.90
10390;DHT22;5241;47.830;12.972;2023-01-26T08:02:30;0.60;99.90
10390;DHT22;5241;47.830;12.972;2023-01-26T08:04:56;0.50;99.90
10390;DHT22;5241;47.830;12.972;2023-01-26T08:07:22;0.50;99.90
10390;DHT22;5241;47.830;12.972;2023-01-26T08:09:47;0.50;99.90
10390;DHT22;5241;47.830;12.972;2023-01-26T08:12:13;0.60;99.90
10390;DHT22;5241;47.830;12.972;2023-01-26T08:14:38;0.60;99.90
10390;DHT22;5241;47.830;12.972;2023-01-26T08:17:04;0.60;99.90
10390;DHT22;5241;47.830;12.972;2023-01-26T08:19:29;0.60;99.90
10390;DHT22;5241;47.830;12.972;2023-01-26T08:21:55;0.60;99.90
10390;DHT22;5241;47.830;12.972;2023-01-26T08:24:21;0.60;99.90
10390;DHT22;5241;47.830;12.972;2023-01-26T08:26:47;0.60;99.90
10390;DHT22;5241;47.830;12.972;2023-01-26T08:29:12;0.60;99.90
10390;DHT22;5241;47.830;12.972;2023-01-26T08:31:38;0.60;99.90
10390;DHT22;5241;47.830;12.972;2023-01-26T08:34:04;0.60;99.90
10390;DHT22;5241;47.830;12.972;2023-01-26T08:36:29;0.60;99.90
10390;DHT22;5241;47.830;12.972;2023-01-26T08:38:55;0.70;99.90
10390;DHT22;5241;47.830;12.972;2023-01-26T08:41:20;0.70;99.90
10390;DHT22;5241;47.830;12.972;2023-01-26T08:43:46;0.70;99.90
10390;DHT22;5241;47.830;12.972;2023-01-26T08:46:12;0.80;99.90
10390;DHT22;5241;47.830;12.972;2023-01-26T08:48:38;0.90;99.90
10390;DHT22;5241;47.830;12.972;2023-01-26T08:51:05;0.90;99.90
10390;DHT22;5241;47.830;12.972;2023-01-26T08:53:33;0.90;99.90
10390;DHT22;5241;47.830;12.972;2023-01-26T08:56:03;0.90;99.90
10390;DHT22;5241;47.830;12.972;2023-01-26T08:58:29;0.90;99.90
10390;DHT22;5241;47.830;12.972;2023-01-26T09:00:55;0.90;99.90
10390;DHT22;5241;47.830;12.972;2023-01-26T09:03:21;0.90;99.90
10390;DHT22;5241;47.830;12.972;2023-01-26T09:05:46;0.90;99.90
10390;DHT22;5241;47.830;12.972;2023-01-26T09:08:12;1.00;99.90
10390;DHT22;5241;47.830;12.972;2023-01-26T09:10:38;1.00;99.90
10390;DHT22;5241;47.830;12.972;2023-01-26T09:13:03;0.90;99.90
10390;DHT22;5241;47.830;12.972;2023-01-26T09:15:29;1.00;99.90
10390;DHT22;5241;47.830;12.972;2023-01-26T09:17:55;1.00;99.90
10390;DHT22;5241;47.830;12.972;2023-01-26T09:20:20;1.00;99.90
10390;DHT22;5241;47.830;12.972;2023-01-26T09:22:46;1.10;99.90
10390;DHT22;5241;47.830;12.972;2023-01-26T09:25:12;1.10;99.90
10390;DHT22;5241;47.830;12.972;2023-01-26T09:27:38;1.10;99.90
10390;DHT22;5241;47.830;12.972;2023-01-26T09:30:05;1.20;99.90
10390;DHT22;5241;47.830;12.972;2023-01-26T09:32:31;1.30;99.90
10390;DHT22;5241;47.830;12.972;2023-01-26T09:34:57;1.30;99.90
10390;DHT22;5241;47.830;12.972;2023-01-26T09:37:23;1.30;99.90
10390;DHT22;5241;47.830;12.972;2023-01-26T09:39:48;1.20;99.90
10390;DHT22;5241;47.830;12.972;2023-01-26T09:45:25;1.10;99.90
10390;DHT22;5241;47.830;12.972;2023-01-26T09:51:02;1.10;99.90
10390;DHT22;5241;47.830;12.972;2023-01-26T09:53:52;1.10;99.90
10390;DHT22;5241;47.830;12.972;2023-01-26T09:56:21;1.10;99.90
10390;DHT22;5241;47.830;12.972;2023-01-26T10:01:39;1.00;99.90
10390;DHT22;5241;47.830;12.972;2023-01-26T10:04:32;1.00;99.90
10390;DHT22;5241;47.830;12.972;2023-01-26T10:07:12;1.10;99.90
10390;DHT22;5241;47.830;12.972;2023-01-26T10:09:42;1.10;99.90
10390;DHT22;5241;47.830;12.972;2023-01-26T10:17:27;1.20;99.90
10390;DHT22;5241;47.830;12.972;2023-01-26T10:23:11;1.20;99.90
10390;DHT22;5241;47.830;12.972;2023-01-26T10:25:41;1.20;99.90
10390;DHT22;5241;47.830;12.972;2023-01-26T10:28:13;1.30;99.90
10390;DHT22;5241;47.830;12.972;2023-01-26T10:30:42;1.20;99.90
10390;DHT22;5241;47.830;12.972;2023-01-26T10:33:47;1.20;99.90
10390;DHT22;5241;47.830;12.972;2023-01-26T10:36:05;1.20;99.90
10390;DHT22;5241;47.830;12.972;2023-01-26T10:43:42;1.20;99.90
10390;DHT22;5241;47.830;12.972;2023-01-26T10:48:59;1.20;99.90
10390;DHT22;5241;47.830;12.972;2023-01-26T10:51:29;1.20;99.90
10390;DHT22;5241;47.830;12.972;2023-01-26T10:54:18;1.40;99.90
10390;DHT22;5241;47.830;12.972;2023-01-26T10:56:57;1.40;99.90
10390;DHT22;5241;47.830;12.972;2023-01-26T10:59:37;1.30;99.90
10390;DHT22;5241;47.830;12.972;2023-01-26T11:04:36;1.10;99.90
10390;DHT22;5241;47.830;12.972;2023-01-26T11:07:25;1.10;99.90
10390;DHT22;5241;47.830;12.972;2023-01-26T11:09:51;1.10;99.90
10390;DHT22;5241;47.830;12.972;2023-01-26T11:12:19;1.10;99.90
10390;DHT22;5241;47.830;12.972;2023-01-26T11:15:02;1.20;99.90
10390;DHT22;5241;47.830;12.972;2023-01-26T11:20:37;1.10;99.90
10390;DHT22;5241;47.830;12.972;2023-01-26T11:23:15;1.00;99.90
10390;DHT22;5241;47.830;12.972;2023-01-26T11:28:57;1.00;99.90
10390;DHT22;5241;47.830;12.972;2023-01-26T11:40:13;1.10;99.90
10390;DHT22;5241;47.830;12.972;2023-01-26T11:45:40;1.00;99.90
10390;DHT22;5241;47.830;12.972;2023-01-26T11:50:56;1.00;99.90
10390;DHT22;5241;47.830;12.972;2023-01-26T11:53:36;0.90;99.90
10390;DHT22;5241;47.830;12.972;2023-01-26T11:56:18;0.90;99.90
10390;DHT22;5241;47.830;12.972;2023-01-26T11:59:11;0.90;99.90
10390;DHT22;5241;47.830;12.972;2023-01-26T12:01:52;0.80;99.90
10390;DHT22;5241;47.830;12.972;2023-01-26T12:04:21;0.90;99.90
10390;DHT22;5241;47.830;12.972;2023-01-26T12:07:00;0.90;99.90
10390;DHT22;5241;47.830;12.972;2023-01-26T12:09:43;0.90;99.90
10390;DHT22;5241;47.830;12.972;2023-01-26T12:12:24;0.90;99.90
10390;DHT22;5241;47.830;12.972;2023-01-26T12:14:56;0.80;99.90
10390;DHT22;5241;47.830;12.972;2023-01-26T12:22:48;0.80;99.90
10390;DHT22;5241;47.830;12.972;2023-01-26T12:25:34;0.90;99.90
10390;DHT22;5241;47.830;12.972;2023-01-26T12:28:31;0.90;99.90
10390;DHT22;5241;47.830;12.972;2023-01-26T12:33:31;1.00;99.90
10390;DHT22;5241;47.830;12.972;2023-01-26T12:41:15;0.90;99.90
10390;DHT22;5241;47.830;12.972;2023-01-26T12:46:32;0.80;99.90
10390;DHT22;5241;47.830;12.972;2023-01-26T12:49:15;0.70;99.90
10390;DHT22;5241;47.830;12.972;2023-01-26T12:51:50;0.80;99.90
10390;DHT22;5241;47.830;12.972;2023-01-26T12:54:26;0.80;99.90
10390;DHT22;5241;47.830;12.972;2023-01-26T12:56:58;0.80;99.90
10390;DHT22;5241;47.830;12.972;2023-01-26T12:59:33;0.70;99.90
10390;DHT22;5241;47.830;12.972;2023-01-26T13:04:41;0.70;99.90
10390;DHT22;5241;47.830;12.972;2023-01-26T13:07:28;0.70;99.90
10390;DHT22;5241;47.830;12.972;2023-01-26T13:10:27;0.70;99.90
10390;DHT22;5241;47.830;12.972;2023-01-26T13:13:00;0.70;99.90
10390;DHT22;5241;47.830;12.972;2023-01-26T13:15:28;0.70;99.90
10390;DHT22;5241;47.830;12.972;2023-01-26T13:17:55;0.70;99.90
10390;DHT22;5241;47.830;12.972;2023-01-26T13:22:49;0.60;99.90
10390;DHT22;5241;47.830;12.972;2023-01-26T13:25:29;0.50;99.90
10390;DHT22;5241;47.830;12.972;2023-01-26T13:28:00;0.60;99.90
10390;DHT22;5241;47.830;12.972;2023-01-26T13:30:43;0.50;99.90
10390;DHT22;5241;47.830;12.972;2023-01-26T13:33:20;0.50;99.90
10390;DHT22;5241;47.830;12.972;2023-01-26T13:35:47;0.50;99.90
10390;DHT22;5241;47.830;12.972;2023-01-26T13:38:34;0.40;99.90
10390;DHT22;5241;47.830;12.972;2023-01-26T13:41:06;0.50;99.90
10390;DHT22;5241;47.830;12.972;2023-01-26T13:43:40;0.50;99.90
10390;DHT22;5241;47.830;12.972;2023-01-26T13:48:44;0.50;99.90
10390;DHT22;5241;47.830;12.972;2023-01-26T13:51:30;0.40;99.90
10390;DHT22;5241;47.830;12.972;2023-01-26T13:56:35;0.40;99.90
10390;DHT22;5241;47.830;12.972;2023-01-26T13:59:13;0.40;99.90
10390;DHT22;5241;47.830;12.972;2023-01-26T14:01:46;0.30;99.90
10390;DHT22;5241;47.830;12.972;2023-01-26T14:04:21;0.30;99.90
10390;DHT22;5241;47.830;12.972;2023-01-26T14:06:57;0.30;99.90
10390;DHT22;5241;47.830;12.972;2023-01-26T14:09:27;0.30;99.90
10390;DHT22;5241;47.830;12.972;2023-01-26T14:12:02;0.30;99.90
10390;DHT22;5241;47.830;12.972;2023-01-26T14:14:32;0.30;99.90
10390;DHT22;5241;47.830;12.972;2023-01-26T14:16:58;0.30;99.90
10390;DHT22;5241;47.830;12.972;2023-01-26T14:19:25;0.20;99.90
10390;DHT22;5241;47.830;12.972;2023-01-26T14:21:56;0.20;99.90
10390;DHT22;5241;47.830;12.972;2023-01-26T14:26:56;0.20;99.90
10390;DHT22;5241;47.830;12.972;2023-01-26T14:29:24;0.20;99.90
10390;DHT22;5241;47.830;12.972;2023-01-26T14:31:51;0.20;99.90
10390;DHT22;5241;47.830;12.972;2023-01-26T14:34:20;0.20;99.90
10390;DHT22;5241;47.830;12.972;2023-01-26T14:36:46;0.20;99.90
10390;DHT22;5241;47.830;12.972;2023-01-26T14:39:18;0.20;99.90
10390;DHT22;5241;47.830;12.972;2023-01-26T14:41:44;0.20;99.90
10390;DHT22;5241;47.830;12.972;2023-01-26T14:44:10;0.20;99.90
10390;DHT22;5241;47.830;12.972;2023-01-26T14:46:45;0.20;99.90
10390;DHT22;5241;47.830;12.972;2023-01-26T14:51:49;0.20;99.90
10390;DHT22;5241;47.830;12.972;2023-01-26T14:54:27;0.20;99.90
10390;DHT22;5241;47.830;12.972;2023-01-26T14:56:54;0.10;99.90
10390;DHT22;5241;47.830;12.972;2023-01-26T14:59:24;0.10;99.90
10390;DHT22;5241;47.830;12.972;2023-01-26T15:02:23;0.20;99.90
10390;DHT22;5241;47.830;12.972;2023-01-26T15:05:03;0.10;99.90
10390;DHT22;5241;47.830;12.972;2023-01-26T15:10:25;0.10;99.90
10390;DHT22;5241;47.830;12.972;2023-01-26T15:15:26;0.10;99.90
10390;DHT22;5241;47.830;12.972;2023-01-26T15:18:01;0.10;99.90
10390;DHT22;5241;47.830;12.972;2023-01-26T15:22:53;0.00;99.90
10390;DHT22;5241;47.830;12.972;2023-01-26T15:25:23;0.00;99.90
10390;DHT22;5241;47.830;12.972;2023-01-26T15:27:58;0.00;99.90
10390;DHT22;5241;47.830;12.972;2023-01-26T15:30:32;0.00;99.90
10390;DHT22;5241;47.830;12.972;2023-01-26T15:32:59;0.00;99.90
10390;DHT22;5241;47.830;12.972;2023-01-26T15:35:27;0.10;99.90
10390;DHT22;5241;47.830;12.972;2023-01-26T15:38:11;0.00;99.90
10390;DHT22;5241;47.830;12.972;2023-01-26T15:40:37;0.00;99.90
10390;DHT22;5241;47.830;12.972;2023-01-26T15:43:17;0.00;99.90
10390;DHT22;5241;47.830;12.972;2023-01-26T15:45:54;0.00;99.90
10390;DHT22;5241;47.830;12.972;2023-01-26T15:48:20;0.00;99.90
10390;DHT22;5241;47.830;12.972;2023-01-26T15:50:47;0.00;99.90
10390;DHT22;5241;47.830;12.972;2023-01-26T15:53:14;-0.10;99.90
10390;DHT22;5241;47.830;12.972;2023-01-26T15:55:40;-0.10;99.90
10390;DHT22;5241;47.830;12.972;2023-01-26T15:58:05;-0.10;99.90
10390;DHT22;5241;47.830;12.972;2023-01-26T16:00:31;-0.10;99.90
10390;DHT22;5241;47.830;12.972;2023-01-26T16:02:57;-0.10;99.90
10390;DHT22;5241;47.830;12.972;2023-01-26T16:05:23;-0.10;99.90
10390;DHT22;5241;47.830;12.972;2023-01-26T16:07:51;-0.10;99.90
10390;DHT22;5241;47.830;12.972;2023-01-26T16:10:17;-0.10;99.90
10390;DHT22;5241;47.830;12.972;2023-01-26T16:12:43;-0.10;99.90
10390;DHT22;5241;47.830;12.972;2023-01-26T16:17:52;-0.10;99.90
10390;DHT22;5241;47.830;12.972;2023-01-26T16:20:18;-0.10;99.90
10390;DHT22;5241;47.830;12.972;2023-01-26T16:22:43;-0.10;99.90
10390;DHT22;5241;47.830;12.972;2023-01-26T16:25:29;-0.10;99.90
10390;DHT22;5241;47.830;12.972;2023-01-26T16:27:56;-0.10;99.90
10390;DHT22;5241;47.830;12.972;2023-01-26T16:30:24;-0.10;99.90
10390;DHT22;5241;47.830;12.972;2023-01-26T16:32:50;-0.20;99.90
10390;DHT22;5241;47.830;12.972;2023-01-26T16:35:19;-0.10;99.90
10390;DHT22;5241;47.830;12.972;2023-01-26T16:37:45;-0.10;99.90
10390;DHT22;5241;47.830;12.972;2023-01-26T16:40:13;-0.10;99.90
10390;DHT22;5241;47.830;12.972;2023-01-26T16:42:41;-0.10;99.90
10390;DHT22;5241;47.830;12.972;2023-01-26T16:45:20;-0.10;99.90
10390;DHT22;5241;47.830;12.972;2023-01-26T16:47:52;-0.10;99.90
10390;DHT22;5241;47.830;12.972;2023-01-26T16:50:22;-0.10;99.90
10390;DHT22;5241;47.830;12.972;2023-01-26T16:52:48;-0.10;99.90
10390;DHT22;5241;47.830;12.972;2023-01-26T16:55:14;-0.10;99.90
10390;DHT22;5241;47.830;12.972;2023-01-26T16:57:42;-0.10;99.90
10390;DHT22;5241;47.830;12.972;2023-01-26T17:00:20;-0.10;99.90
10390;DHT22;5241;47.830;12.972;2023-01-26T17:02:47;-0.10;99.90
10390;DHT22;5241;47.830;12.972;2023-01-26T17:05:19;-0.10;99.90
10390;DHT22;5241;47.830;12.972;2023-01-26T17:07:45;-0.10;99.90
10390;DHT22;5241;47.830;12.972;2023-01-26T17:10:13;-0.10;99.90
10390;DHT22;5241;47.830;12.972;2023-01-26T17:12:39;-0.10;99.90
10390;DHT22;5241;47.830;12.972;2023-01-26T17:15:06;-0.10;99.90
10390;DHT22;5241;47.830;12.972;2023-01-26T17:17:32;-0.10;99.90
10390;DHT22;5241;47.830;12.972;2023-01-26T17:20:02;-0.10;99.90
10390;DHT22;5241;47.830;12.972;2023-01-26T17:22:28;-0.10;99.90
10390;DHT22;5241;47.830;12.972;2023-01-26T17:24:55;-0.10;99.90
10390;DHT22;5241;47.830;12.972;2023-01-26T17:27:21;-0.10;99.90
10390;DHT22;5241;47.830;12.972;2023-01-26T17:29:47;-0.20;99.90
10390;DHT22;5241;47.830;12.972;2023-01-26T17:32:14;-0.10;99.90
10390;DHT22;5241;47.830;12.972;2023-01-26T17:34:41;-0.10;99.90
10390;DHT22;5241;47.830;12.972;2023-01-26T17:37:07;-0.10;99.90